EIKN - Connaught
Distance from station: E 5mi, 14km
Updated: 12/13/2017 8:00am
Partly Cloudy
Partly Cloudy
 Wind from W
Wind: W 16 mph , 26 km/h
Temperature: 34°F , 1°C
Wind Chill: 24°F , -4°C
Dew Point: 32°F , 0°C
Humidity: 93%
Barometer: 29.21 inHg , 989 hPa
Clouds: Partly Cloudy
Visibility: 6 miles , 10 km
Cloud details: Mostly Cloudy 1000 ft
Few Clouds 1800 ft
Partly Cloudy 10000 ft
2017/12/13 16:00 EIKN 131600Z 28014KT 9999 BKN010 FEW018CB SCT100 01/00 Q0989 RESN NOSIG